createdAt,value
2022-09-10T00:02:57.519Z,3.60
2022-09-10T00:06:59.178Z,2.80
2022-09-10T00:11:04.706Z,2.37
2022-09-10T00:15:09.723Z,3.33
2022-09-10T00:19:11.853Z,2.27
2022-09-10T00:23:13.783Z,3.07
2022-09-10T00:27:15.199Z,3.90
2022-09-10T00:31:18.535Z,7.20
2022-09-10T00:39:39.132Z,3.20
2022-09-10T00:43:50.441Z,3.77
2022-09-10T00:47:55.762Z,6.37
2022-09-10T00:51:57.811Z,5.13
2022-09-10T00:56:01.762Z,2.60
2022-09-10T01:00:06.613Z,1.13
2022-09-10T01:04:09.538Z,2.80
2022-09-10T01:08:13.086Z,3.43
2022-09-10T01:12:33.134Z,3.83
2022-09-10T01:16:46.866Z,5.77
2022-09-10T01:21:04.742Z,1.27
2022-09-10T01:25:15.190Z,4.53
2022-09-10T01:29:24.627Z,4.50
2022-09-10T01:33:34.401Z,4.43
2022-09-10T01:37:38.814Z,4.00
2022-09-10T01:41:40.446Z,2.77
2022-09-10T01:45:55.641Z,3.33
2022-09-10T01:50:18.691Z,2.13
2022-09-10T01:54:36.366Z,3.57
2022-09-10T01:58:40.470Z,3.20
2022-09-10T02:02:47.950Z,2.43
2022-09-10T02:06:51.174Z,3.03
2022-09-10T02:10:55.239Z,1.50
2022-09-10T02:14:57.670Z,4.77
2022-09-10T02:19:02.338Z,4.33
2022-09-10T02:23:06.285Z,1.97
2022-09-10T02:27:07.737Z,4.63
2022-09-10T02:31:09.799Z,3.27
2022-09-10T02:35:12.960Z,4.67
2022-09-10T02:39:14.393Z,6.57
2022-09-10T02:43:16.103Z,3.50
2022-09-10T02:47:17.506Z,4.30
2022-09-10T02:51:20.306Z,1.27
2022-09-10T02:55:21.874Z,2.33
2022-09-10T02:59:23.741Z,3.90
2022-09-10T03:03:25.134Z,2.47
2022-09-10T03:07:28.048Z,2.57
2022-09-10T03:11:29.470Z,2.93
2022-09-10T03:15:31.002Z,5.00
2022-09-10T03:19:32.618Z,3.10
2022-09-10T03:23:37.369Z,4.60
2022-09-10T03:27:39.606Z,5.93
2022-09-10T03:31:41.031Z,2.37
2022-09-10T03:35:42.606Z,4.10
2022-09-10T03:39:45.397Z,2.50
2022-09-10T03:43:46.963Z,4.67
2022-09-10T03:47:48.493Z,3.17
2022-09-10T03:51:51.007Z,2.77
2022-09-10T03:55:53.763Z,7.40
2022-09-10T03:59:55.137Z,2.50
2022-09-10T04:03:57.102Z,4.70
2022-09-10T04:07:59.175Z,2.70
2022-09-10T04:12:03.098Z,2.43
2022-09-10T04:16:04.671Z,4.97
2022-09-10T04:20:07.298Z,2.33
2022-09-10T04:24:11.598Z,2.70
2022-09-10T04:28:14.458Z,4.60
2022-09-10T04:32:15.998Z,2.17
2022-09-10T04:36:17.358Z,4.60
2022-09-10T04:40:18.743Z,3.97
2022-09-10T04:44:21.677Z,3.00
2022-09-10T04:48:24.163Z,2.93
2022-09-10T04:52:25.717Z,2.07
2022-09-10T04:56:28.213Z,3.27
2022-09-10T05:00:30.949Z,4.00
2022-09-10T05:04:32.658Z,2.50
2022-09-10T05:08:34.055Z,4.30
2022-09-10T05:12:35.633Z,5.17
2022-09-10T05:16:38.714Z,3.23
2022-09-10T05:20:42.901Z,2.40
2022-09-10T05:24:44.429Z,5.63
2022-09-10T05:28:45.818Z,3.90
2022-09-10T05:32:48.689Z,6.87
2022-09-10T05:36:50.065Z,3.63
2022-09-10T05:40:51.610Z,1.60
2022-09-10T05:44:53.190Z,5.30
2022-09-10T05:48:56.382Z,7.63
2022-09-10T05:52:57.759Z,3.63
2022-09-10T05:56:59.334Z,6.80
2022-09-10T06:01:00.885Z,6.17
2022-09-10T06:05:04.471Z,3.53
2022-09-10T06:09:06.102Z,3.63
2022-09-10T06:13:07.687Z,2.67
2022-09-10T06:17:09.081Z,4.43
2022-09-10T06:21:14.134Z,3.00
2022-09-10T06:25:15.646Z,1.90
2022-09-10T06:29:17.946Z,3.73
2022-09-10T06:33:21.797Z,4.33
2022-09-10T06:37:24.561Z,3.17
2022-09-10T06:41:26.298Z,2.37
2022-09-10T06:45:27.948Z,5.60
2022-09-10T06:49:29.342Z,2.57
2022-09-10T06:53:32.237Z,5.17
2022-09-10T06:57:33.628Z,4.27
2022-09-10T07:01:35.464Z,1.60
2022-09-10T07:05:36.846Z,4.43
2022-09-10T07:09:39.629Z,4.80
2022-09-10T07:13:42.262Z,5.53
2022-09-10T07:17:43.663Z,1.70
2022-09-10T07:21:45.234Z,3.23
2022-09-10T07:25:48.481Z,3.53
2022-09-10T07:29:50.058Z,3.13
2022-09-10T07:33:51.660Z,3.67
2022-09-10T07:37:53.046Z,1.97
2022-09-10T07:41:55.809Z,3.83
2022-09-10T07:46:00.026Z,3.23
2022-09-10T07:50:05.825Z,5.17
2022-09-10T07:54:07.546Z,3.40
2022-09-10T07:58:11.449Z,3.67
2022-09-10T08:02:14.545Z,3.50
2022-09-10T08:06:16.371Z,7.27
2022-09-10T08:10:17.989Z,1.53
2022-09-10T08:14:20.721Z,5.73
2022-09-10T08:18:22.329Z,2.43
2022-09-10T08:22:23.793Z,4.47
2022-09-10T08:26:27.709Z,5.77
2022-09-10T08:30:30.477Z,9.37
2022-09-10T08:34:31.847Z,3.33
2022-09-10T08:38:35.469Z,7.57
2022-09-10T08:42:41.316Z,3.43
2022-09-10T08:46:49.657Z,3.40
2022-09-10T08:50:57.305Z,6.70
2022-09-10T08:55:05.485Z,2.53
2022-09-10T08:59:18.596Z,4.03
2022-09-10T09:03:32.037Z,6.60
2022-09-10T09:07:36.969Z,7.53
2022-09-10T09:11:45.881Z,5.63
2022-09-10T09:15:52.770Z,4.63
2022-09-10T09:20:09.139Z,4.57
2022-09-10T09:24:20.533Z,4.50
2022-09-10T09:28:32.162Z,4.80
2022-09-10T09:32:36.633Z,4.07
2022-09-10T09:36:45.831Z,8.30
2022-09-10T09:40:49.633Z,6.47
2022-09-10T09:44:59.264Z,5.63
2022-09-10T09:49:02.238Z,5.70
2022-09-10T09:53:05.153Z,7.20
2022-09-10T09:57:15.470Z,5.13
2022-09-10T10:01:20.412Z,7.60
2022-09-10T10:05:24.446Z,5.53
2022-09-10T10:09:28.841Z,3.27
2022-09-10T10:13:37.810Z,5.47
2022-09-10T10:17:40.257Z,5.90
2022-09-10T10:21:41.698Z,4.90
2022-09-10T10:25:44.477Z,7.53
2022-09-10T10:29:55.257Z,5.60
2022-09-10T10:34:05.144Z,6.87
2022-09-10T10:38:29.713Z,6.37
2022-09-10T10:42:39.197Z,6.20
2022-09-10T10:46:47.174Z,3.77
2022-09-10T10:50:56.629Z,5.10
2022-09-10T10:55:10.426Z,3.67
2022-09-10T10:59:28.107Z,7.23
2022-09-10T11:03:36.377Z,2.93
2022-09-10T11:07:42.609Z,5.17
2022-09-10T11:11:54.734Z,5.43
2022-09-10T11:16:03.522Z,7.50
2022-09-10T11:20:30.246Z,4.53
2022-09-10T11:24:38.565Z,5.73
2022-09-10T11:28:47.280Z,4.83
2022-09-10T11:32:56.224Z,6.13
2022-09-10T11:37:04.373Z,5.40
2022-09-10T11:41:10.880Z,4.67
2022-09-10T11:45:20.185Z,2.80
2022-09-10T11:49:27.732Z,4.57
2022-09-10T11:53:29.505Z,5.30
2022-09-10T11:57:37.844Z,8.40
2022-09-10T12:02:14.260Z,6.83
2022-09-10T12:06:21.005Z,5.67
2022-09-10T12:10:31.671Z,6.67
2022-09-10T12:14:33.201Z,6.17
2022-09-10T12:18:42.863Z,7.87
2022-09-10T12:22:51.428Z,5.93
2022-09-10T12:26:54.593Z,6.73
2022-09-10T12:31:01.666Z,9.07
2022-09-10T12:35:41.565Z,6.03
2022-09-10T12:39:44.530Z,5.90
2022-09-10T12:43:55.005Z,6.23
2022-09-10T12:47:56.457Z,6.43
2022-09-10T12:51:59.761Z,6.30
2022-09-10T12:56:19.153Z,6.93
2022-09-10T13:00:22.668Z,9.40
2022-09-10T13:04:28.248Z,12.13
2022-09-10T13:08:34.039Z,12.03
2022-09-10T13:12:41.924Z,18.10
2022-09-10T13:16:43.673Z,12.67
2022-09-10T13:20:45.289Z,13.97
2022-09-10T13:25:00.872Z,10.40
2022-09-10T13:29:09.371Z,13.93
2022-09-10T13:33:12.097Z,12.47
2022-09-10T13:37:33.069Z,11.20
2022-09-10T13:41:57.948Z,14.77
2022-09-10T13:46:04.406Z,14.90
2022-09-10T13:50:13.415Z,12.00
2022-09-10T13:54:28.849Z,13.20
2022-09-10T13:58:34.948Z,9.90
2022-09-10T14:02:45.210Z,10.83
2022-09-10T14:06:46.663Z,10.20
2022-09-10T14:10:51.918Z,11.20
2022-09-10T14:14:57.213Z,8.43
2022-09-10T14:19:03.929Z,9.93
2022-09-10T14:23:07.868Z,8.43
2022-09-10T14:27:16.785Z,7.20
2022-09-10T14:31:22.270Z,6.07
2022-09-10T14:35:37.380Z,9.73
2022-09-10T14:39:44.082Z,8.17
2022-09-10T14:43:45.952Z,9.00
2022-09-10T14:47:51.990Z,7.30
2022-09-10T14:51:55.780Z,10.47
2022-09-10T14:55:57.400Z,11.77
2022-09-10T14:59:59.757Z,7.97
2022-09-10T15:04:01.476Z,7.37
2022-09-10T15:08:04.424Z,8.43
2022-09-10T15:12:09.088Z,10.17
2022-09-10T15:16:10.587Z,8.53
2022-09-10T15:20:13.917Z,8.07
2022-09-10T15:24:18.915Z,8.20
2022-09-10T15:28:20.453Z,5.47
2022-09-10T15:32:21.897Z,4.63
2022-09-10T15:36:23.444Z,8.10
2022-09-10T15:40:26.184Z,4.97
2022-09-10T15:44:27.568Z,4.47
2022-09-10T15:48:30.536Z,6.53
2022-09-10T15:52:31.921Z,3.33
2022-09-10T15:56:34.800Z,4.77
2022-09-10T16:00:36.204Z,4.90
2022-09-10T16:04:40.292Z,4.47
2022-09-10T16:08:48.064Z,5.50
2022-09-10T16:12:50.796Z,4.83
2022-09-10T16:16:52.356Z,3.80
2022-09-10T16:20:53.892Z,5.07
2022-09-10T16:24:55.445Z,3.07
2022-09-10T16:28:59.377Z,4.97
2022-09-10T16:33:00.788Z,6.03
2022-09-10T16:37:02.388Z,2.23
2022-09-10T16:41:05.881Z,4.97
2022-09-10T16:45:09.492Z,3.30
2022-09-10T16:49:12.100Z,4.67
2022-09-10T16:53:13.577Z,5.87
2022-09-10T16:57:15.130Z,2.90
2022-09-10T17:01:17.948Z,3.43
2022-09-10T17:05:20.084Z,4.37
2022-09-10T17:09:21.497Z,5.10
2022-09-10T17:13:23.037Z,5.53
2022-09-10T17:17:26.216Z,5.73
2022-09-10T17:21:29.301Z,5.40
2022-09-10T17:25:30.706Z,2.90
2022-09-10T17:29:32.186Z,5.13
2022-09-10T17:33:35.415Z,3.87
2022-09-10T17:37:37.264Z,5.67
2022-09-10T17:41:39.257Z,6.67
2022-09-10T17:45:40.625Z,7.23
2022-09-10T17:49:43.369Z,5.47
2022-09-10T17:53:44.990Z,9.97
2022-09-10T17:57:46.383Z,3.73
2022-09-10T18:01:47.830Z,5.73
2022-09-10T18:05:50.647Z,5.97
2022-09-10T18:09:52.034Z,4.83
2022-09-10T18:13:56.053Z,6.30
2022-09-10T18:17:57.827Z,8.80
2022-09-10T18:22:00.681Z,8.67
2022-09-10T18:26:10.990Z,6.73
2022-09-10T18:30:12.731Z,6.50
2022-09-10T18:34:22.666Z,7.10
2022-09-10T18:38:26.922Z,7.27
2022-09-10T18:42:28.305Z,6.73
2022-09-10T18:46:31.139Z,7.23
2022-09-10T18:50:32.548Z,7.03
2022-09-10T18:54:35.413Z,7.27
2022-09-10T18:58:37.553Z,10.17
2022-09-10T19:02:39.149Z,11.23
2022-09-10T19:06:42.124Z,10.50
2022-09-10T19:10:44.852Z,10.53
2022-09-10T19:14:46.428Z,9.67
2022-09-10T19:18:51.733Z,8.77
2022-09-10T19:22:53.276Z,12.90
2022-09-10T19:26:56.832Z,10.83
2022-09-10T19:31:00.190Z,11.00
2022-09-10T19:35:01.746Z,12.47
2022-09-10T19:39:05.626Z,12.13
2022-09-10T19:43:08.395Z,14.20
2022-09-10T19:47:09.947Z,13.37
2022-09-10T19:51:13.107Z,13.07
2022-09-10T19:55:14.711Z,12.90
2022-09-10T19:59:17.457Z,11.83
2022-09-10T20:03:18.896Z,12.37
2022-09-10T20:07:20.297Z,14.97
2022-09-10T20:11:24.144Z,13.83
2022-09-10T20:15:27.199Z,15.70
2022-09-10T20:19:28.580Z,12.50
2022-09-10T20:23:29.962Z,11.63
2022-09-10T20:27:32.879Z,12.33
2022-09-10T20:31:36.923Z,12.90
2022-09-10T20:35:41.686Z,11.90
2022-09-10T20:39:43.432Z,12.47
2022-09-10T20:43:48.615Z,13.30
2022-09-10T20:47:51.399Z,13.23
2022-09-10T20:51:53.731Z,12.80
2022-09-10T20:56:01.991Z,12.70
2022-09-10T21:00:04.630Z,11.53
2022-09-10T21:04:07.427Z,13.37
2022-09-10T21:08:08.794Z,10.67
2022-09-10T21:12:10.382Z,10.87
2022-09-10T21:16:13.729Z,14.90
2022-09-10T21:20:16.807Z,13.87
2022-09-10T21:24:20.132Z,12.47
2022-09-10T21:28:21.694Z,10.77
2022-09-10T21:32:23.104Z,12.00
2022-09-10T21:36:26.259Z,11.23
2022-09-10T21:40:27.622Z,14.67
2022-09-10T21:44:29.042Z,11.63
2022-09-10T21:48:30.999Z,10.97
2022-09-10T21:52:33.901Z,10.97
2022-09-10T21:56:35.468Z,13.40
2022-09-10T22:00:36.931Z,11.80
2022-09-10T22:04:38.463Z,11.00
2022-09-10T22:08:43.361Z,12.43
2022-09-10T22:12:44.874Z,12.23
2022-09-10T22:16:46.328Z,9.97
2022-09-10T22:20:47.738Z,11.47
2022-09-10T22:24:50.436Z,13.90
2022-09-10T22:28:53.271Z,11.57
2022-09-10T22:32:55.666Z,13.07
2022-09-10T22:36:57.050Z,15.03
2022-09-10T22:41:02.650Z,13.20
2022-09-10T22:45:05.020Z,10.57
2022-09-10T22:49:07.202Z,13.20
2022-09-10T22:53:08.747Z,13.17
2022-09-10T22:57:11.622Z,12.00
2022-09-10T23:01:16.374Z,10.17
2022-09-10T23:05:17.829Z,9.43
2022-09-10T23:09:19.226Z,9.70
2022-09-10T23:13:22.030Z,11.50
2022-09-10T23:17:23.579Z,13.40
2022-09-10T23:21:27.407Z,13.33
2022-09-10T23:25:28.859Z,15.40
2022-09-10T23:29:31.747Z,12.13
2022-09-10T23:33:33.211Z,10.70
2022-09-10T23:37:34.831Z,14.63
2022-09-10T23:41:36.262Z,14.43
2022-09-10T23:45:38.977Z,17.23
2022-09-10T23:49:40.530Z,12.57
2022-09-10T23:53:42.659Z,15.53
2022-09-10T23:57:44.395Z,12.97
